sensor_id;sensor_type;location;lat;lon;timestamp;pressure;altitude;pressure_sealevel;temperature;humidity
20424;BME280;10371;49.042;8.002;2023-01-05T00:00:05;100336.38;;;11.35;100.00
20424;BME280;10371;49.042;8.002;2023-01-05T00:01:08;100331.97;;;11.36;100.00
20424;BME280;10371;49.042;8.002;2023-01-05T00:02:08;100332.81;;;11.36;100.00
20424;BME280;10371;49.042;8.002;2023-01-05T00:03:09;100338.75;;;11.38;100.00
20424;BME280;10371;49.042;8.002;2023-01-05T00:04:09;100342.19;;;11.39;100.00
20424;BME280;10371;49.042;8.002;2023-01-05T00:05:10;100350.13;;;11.37;100.00
20424;BME280;10371;49.042;8.002;2023-01-05T00:06:13;100349.06;;;11.40;100.00
20424;BME280;10371;49.042;8.002;2023-01-05T00:07:14;100330.94;;;11.38;100.00
20424;BME280;10371;49.042;8.002;2023-01-05T00:08:14;100326.53;;;11.39;100.00
20424;BME280;10371;49.042;8.002;2023-01-05T00:09:16;100329.88;;;11.41;100.00
20424;BME280;10371;49.042;8.002;2023-01-05T00:10:17;100336.03;;;11.40;100.00
20424;BME280;10371;49.042;8.002;2023-01-05T00:11:36;100332.38;;;11.43;100.00
20424;BME280;10371;49.042;8.002;2023-01-05T00:12:55;100334.97;;;11.43;100.00
20424;BME280;10371;49.042;8.002;2023-01-05T00:14:18;100331.31;;;11.45;100.00
20424;BME280;10371;49.042;8.002;2023-01-05T00:15:37;100336.28;;;11.48;100.00
20424;BME280;10371;49.042;8.002;2023-01-05T00:16:56;100338.75;;;11.50;100.00
20424;BME280;10371;49.042;8.002;2023-01-05T00:18:15;100334.38;;;11.50;100.00
20424;BME280;10371;49.042;8.002;2023-01-05T00:19:34;100346.59;;;11.50;100.00
20424;BME280;10371;49.042;8.002;2023-01-05T00:20:53;100336.16;;;11.50;100.00
20424;BME280;10371;49.042;8.002;2023-01-05T00:22:19;100334.03;;;11.55;100.00
20424;BME280;10371;49.042;8.002;2023-01-05T00:23:35;100328.00;;;11.54;100.00
20424;BME280;10371;49.042;8.002;2023-01-05T00:24:36;100336.78;;;11.53;100.00
20424;BME280;10371;49.042;8.002;2023-01-05T00:25:39;100332.47;;;11.52;100.00
20424;BME280;10371;49.042;8.002;2023-01-05T00:26:39;100333.69;;;11.48;100.00
20424;BME280;10371;49.042;8.002;2023-01-05T00:27:41;100325.00;;;11.48;100.00
20424;BME280;10371;49.042;8.002;2023-01-05T00:28:41;100322.53;;;11.46;100.00
20424;BME280;10371;49.042;8.002;2023-01-05T00:29:42;100324.41;;;11.44;100.00
20424;BME280;10371;49.042;8.002;2023-01-05T00:30:44;100332.81;;;11.48;100.00
20424;BME280;10371;49.042;8.002;2023-01-05T00:31:45;100338.03;;;11.48;100.00
20424;BME280;10371;49.042;8.002;2023-01-05T00:32:46;100331.06;;;11.48;100.00
20424;BME280;10371;49.042;8.002;2023-01-05T00:33:46;100329.16;;;11.50;100.00
20424;BME280;10371;49.042;8.002;2023-01-05T00:34:46;100341.25;;;11.51;100.00
20424;BME280;10371;49.042;8.002;2023-01-05T00:35:47;100324.56;;;11.54;100.00
20424;BME280;10371;49.042;8.002;2023-01-05T00:36:47;100316.13;;;11.50;100.00
20424;BME280;10371;49.042;8.002;2023-01-05T00:37:48;100321.22;;;11.52;100.00
20424;BME280;10371;49.042;8.002;2023-01-05T00:38:49;100316.13;;;11.50;100.00
20424;BME280;10371;49.042;8.002;2023-01-05T00:39:49;100325.84;;;11.48;100.00
20424;BME280;10371;49.042;8.002;2023-01-05T00:40:49;100323.50;;;11.45;100.00
20424;BME280;10371;49.042;8.002;2023-01-05T00:41:50;100321.81;;;11.44;100.00
20424;BME280;10371;49.042;8.002;2023-01-05T00:42:50;100323.50;;;11.45;100.00
20424;BME280;10371;49.042;8.002;2023-01-05T00:43:50;100326.78;;;11.47;100.00
20424;BME280;10371;49.042;8.002;2023-01-05T00:44:51;100326.09;;;11.45;100.00
20424;BME280;10371;49.042;8.002;2023-01-05T00:45:51;100323.59;;;11.44;100.00
20424;BME280;10371;49.042;8.002;2023-01-05T00:46:51;100335.91;;;11.41;100.00
20424;BME280;10371;49.042;8.002;2023-01-05T00:47:51;100347.63;;;11.36;100.00
20424;BME280;10371;49.042;8.002;2023-01-05T00:48:54;100337.44;;;11.33;100.00
20424;BME280;10371;49.042;8.002;2023-01-05T00:49:54;100336.50;;;11.34;100.00
20424;BME280;10371;49.042;8.002;2023-01-05T00:50:54;100329.63;;;11.33;100.00
20424;BME280;10371;49.042;8.002;2023-01-05T00:51:54;100337.19;;;11.36;100.00
20424;BME280;10371;49.042;8.002;2023-01-05T00:52:55;100332.22;;;11.33;100.00
20424;BME280;10371;49.042;8.002;2023-01-05T00:53:55;100326.28;;;11.31;100.00
20424;BME280;10371;49.042;8.002;2023-01-05T00:54:55;100318.03;;;11.37;100.00
20424;BME280;10371;49.042;8.002;2023-01-05T00:55:57;100326.66;;;11.37;100.00
20424;BME280;10371;49.042;8.002;2023-01-05T00:56:57;100320.16;;;11.43;100.00
20424;BME280;10371;49.042;8.002;2023-01-05T00:57:58;100324.56;;;11.43;100.00
20424;BME280;10371;49.042;8.002;2023-01-05T00:58:58;100322.75;;;11.43;100.00
20424;BME280;10371;49.042;8.002;2023-01-05T00:59:58;100306.53;;;11.39;100.00
20424;BME280;10371;49.042;8.002;2023-01-05T01:01:01;100325.72;;;11.38;100.00
20424;BME280;10371;49.042;8.002;2023-01-05T01:02:07;100320.63;;;11.37;100.00
20424;BME280;10371;49.042;8.002;2023-01-05T01:03:08;100319.09;;;11.34;100.00
20424;BME280;10371;49.042;8.002;2023-01-05T01:04:08;100305.91;;;11.36;100.00
20424;BME280;10371;49.042;8.002;2023-01-05T01:05:10;100310.22;;;11.37;100.00
20424;BME280;10371;49.042;8.002;2023-01-05T01:06:11;100318.13;;;11.35;100.00
20424;BME280;10371;49.042;8.002;2023-01-05T01:07:12;100309.25;;;11.38;100.00
20424;BME280;10371;49.042;8.002;2023-01-05T01:08:12;100309.47;;;11.35;100.00
20424;BME280;10371;49.042;8.002;2023-01-05T01:09:14;100319.66;;;11.38;100.00
20424;BME280;10371;49.042;8.002;2023-01-05T01:10:15;100320.63;;;11.37;100.00
20424;BME280;10371;49.042;8.002;2023-01-05T01:11:15;100317.41;;;11.33;100.00
20424;BME280;10371;49.042;8.002;2023-01-05T01:12:15;100317.63;;;11.30;100.00
20424;BME280;10371;49.042;8.002;2023-01-05T01:13:16;100316.81;;;11.30;100.00
20424;BME280;10371;49.042;8.002;2023-01-05T01:14:16;100309.00;;;11.30;100.00
20424;BME280;10371;49.042;8.002;2023-01-05T01:15:17;100301.31;;;11.28;100.00
20424;BME280;10371;49.042;8.002;2023-01-05T01:16:18;100299.97;;;11.23;100.00
20424;BME280;10371;49.042;8.002;2023-01-05T01:17:18;100300.94;;;11.22;100.00
20424;BME280;10371;49.042;8.002;2023-01-05T01:18:18;100297.72;;;11.18;100.00
20424;BME280;10371;49.042;8.002;2023-01-05T01:19:21;100298.78;;;11.15;100.00
20424;BME280;10371;49.042;8.002;2023-01-05T01:20:22;100289.19;;;11.16;100.00
20424;BME280;10371;49.042;8.002;2023-01-05T01:21:22;100288.38;;;11.15;100.00
20424;BME280;10371;49.042;8.002;2023-01-05T01:22:22;100284.81;;;11.16;100.00
20424;BME280;10371;49.042;8.002;2023-01-05T01:23:23;100282.31;;;11.15;100.00
20424;BME280;10371;49.042;8.002;2023-01-05T01:24:25;100283.16;;;11.15;100.00
20424;BME280;10371;49.042;8.002;2023-01-05T01:25:26;100272.97;;;11.12;100.00
20424;BME280;10371;49.042;8.002;2023-01-05T01:26:26;100283.03;;;11.17;100.00
20424;BME280;10371;49.042;8.002;2023-01-05T01:27:29;100281.28;;;11.17;100.00
20424;BME280;10371;49.042;8.002;2023-01-05T01:28:29;100288.22;;;11.17;100.00
20424;BME280;10371;49.042;8.002;2023-01-05T01:29:29;100286.25;;;11.21;100.00
20424;BME280;10371;49.042;8.002;2023-01-05T01:30:30;100280.78;;;11.24;100.00
20424;BME280;10371;49.042;8.002;2023-01-05T01:31:30;100278.69;;;11.29;100.00
20424;BME280;10371;49.042;8.002;2023-01-05T01:32:30;100273.47;;;11.29;100.00
20424;BME280;10371;49.042;8.002;2023-01-05T01:33:31;100277.00;;;11.28;100.00
20424;BME280;10371;49.042;8.002;2023-01-05T01:34:31;100282.34;;;11.26;100.00
20424;BME280;10371;49.042;8.002;2023-01-05T01:35:31;100283.06;;;11.28;100.00
20424;BME280;10371;49.042;8.002;2023-01-05T01:36:32;100279.59;;;11.28;100.00
20424;BME280;10371;49.042;8.002;2023-01-05T01:37:32;100281.28;;;11.29;100.00
20424;BME280;10371;49.042;8.002;2023-01-05T01:38:33;100279.50;;;11.29;100.00
20424;BME280;10371;49.042;8.002;2023-01-05T01:39:33;100280.09;;;11.33;100.00
20424;BME280;10371;49.042;8.002;2023-01-05T01:40:41;100286.13;;;11.33;100.00
20424;BME280;10371;49.042;8.002;2023-01-05T01:41:42;100282.94;;;11.30;100.00
20424;BME280;10371;49.042;8.002;2023-01-05T01:42:42;100275.94;;;11.30;100.00
20424;BME280;10371;49.042;8.002;2023-01-05T01:43:53;100284.56;;;11.31;100.00
20424;BME280;10371;49.042;8.002;2023-01-05T01:45:03;100282.22;;;11.28;100.00
20424;BME280;10371;49.042;8.002;2023-01-05T01:46:05;100274.38;;;11.28;100.00
20424;BME280;10371;49.042;8.002;2023-01-05T01:47:05;100271.19;;;11.24;100.00
20424;BME280;10371;49.042;8.002;2023-01-05T01:48:08;100279.13;;;11.23;100.00
20424;BME280;10371;49.042;8.002;2023-01-05T01:49:09;100268.94;;;11.19;100.00
20424;BME280;10371;49.042;8.002;2023-01-05T01:51:19;100272.25;;;11.22;100.00
20424;BME280;10371;49.042;8.002;2023-01-05T01:52:23;100275.00;;;11.20;100.00
20424;BME280;10371;49.042;8.002;2023-01-05T01:53:34;100275.00;;;11.20;100.00
20424;BME280;10371;49.042;8.002;2023-01-05T01:54:37;100279.25;;;11.21;100.00
20424;BME280;10371;49.042;8.002;2023-01-05T01:55:38;100265.41;;;11.21;100.00
20424;BME280;10371;49.042;8.002;2023-01-05T01:56:46;100264.56;;;11.20;100.00
20424;BME280;10371;49.042;8.002;2023-01-05T01:57:49;100278.44;;;11.21;100.00
20424;BME280;10371;49.042;8.002;2023-01-05T01:58:50;100277.69;;;11.18;100.00
20424;BME280;10371;49.042;8.002;2023-01-05T01:59:51;100288.38;;;11.15;100.00
20424;BME280;10371;49.042;8.002;2023-01-05T02:00:51;100279.59;;;11.16;100.00
20424;BME280;10371;49.042;8.002;2023-01-05T02:01:54;100288.38;;;11.15;100.00
20424;BME280;10371;49.042;8.002;2023-01-05T02:02:56;100283.97;;;11.16;100.00
20424;BME280;10371;49.042;8.002;2023-01-05T02:03:57;100283.16;;;11.15;100.00
20424;BME280;10371;49.042;8.002;2023-01-05T02:05:01;100268.94;;;11.19;100.00
20424;BME280;10371;49.042;8.002;2023-01-05T02:06:03;100279.97;;;11.23;100.00
20424;BME280;10371;49.042;8.002;2023-01-05T02:07:06;100282.56;;;11.23;100.00
20424;BME280;10371;49.042;8.002;2023-01-05T02:08:13;100280.66;;;11.25;100.00
20424;BME280;10371;49.042;8.002;2023-01-05T02:09:13;100282.44;;;11.25;100.00
20424;BME280;10371;49.042;8.002;2023-01-05T02:10:25;100273.91;;;11.23;100.00
20424;BME280;10371;49.042;8.002;2023-01-05T02:17:53;100283.88;;;11.29;100.00
20424;BME280;10371;49.042;8.002;2023-01-05T02:21:31;100291.72;;;11.29;100.00
20424;BME280;10371;49.042;8.002;2023-01-05T02:28:29;100291.69;;;11.17;100.00
20424;BME280;10371;49.042;8.002;2023-01-05T02:32:12;100271.53;;;11.19;100.00
20424;BME280;10371;49.042;8.002;2023-01-05T02:33:15;100277.47;;;11.22;100.00
20424;BME280;10371;49.042;8.002;2023-01-05T02:35:45;100279.59;;;11.28;100.00
20424;BME280;10371;49.042;8.002;2023-01-05T02:37:06;100280.78;;;11.24;100.00
20424;BME280;10371;49.042;8.002;2023-01-05T02:38:20;100284.56;;;11.19;100.00
20424;BME280;10371;49.042;8.002;2023-01-05T02:39:33;100286.13;;;11.22;100.00
20424;BME280;10371;49.042;8.002;2023-01-05T02:40:48;100285.41;;;11.20;100.00
20424;BME280;10371;49.042;8.002;2023-01-05T02:42:07;100293.09;;;11.22;100.00
20424;BME280;10371;49.042;8.002;2023-01-05T02:43:12;100288.03;;;11.20;100.00
20424;BME280;10371;49.042;8.002;2023-01-05T02:44:15;100287.06;;;11.21;100.00
20424;BME280;10371;49.042;8.002;2023-01-05T02:45:17;100297.34;;;11.23;100.00
20424;BME280;10371;49.042;8.002;2023-01-05T02:46:17;100288.63;;;11.24;100.00
20424;BME280;10371;49.042;8.002;2023-01-05T02:48:24;100280.47;;;11.28;100.00
20424;BME280;10371;49.042;8.002;2023-01-05T02:49:26;100284.72;;;11.29;100.00
20424;BME280;10371;49.042;8.002;2023-01-05T02:50:35;100283.19;;;11.38;100.00
20424;BME280;10371;49.042;8.002;2023-01-05T02:51:44;100274.53;;;11.37;100.00
20424;BME280;10371;49.042;8.002;2023-01-05T02:52:55;100270.88;;;11.40;100.00
20424;BME280;10371;49.042;8.002;2023-01-05T02:54:08;100273.34;;;11.41;100.00
20424;BME280;10371;49.042;8.002;2023-01-05T02:55:14;100276.56;;;11.45;100.00
20424;BME280;10371;49.042;8.002;2023-01-05T02:56:48;100267.78;;;11.46;100.00
20424;BME280;10371;49.042;8.002;2023-01-05T02:57:57;100274.16;;;11.42;100.00
20424;BME280;10371;49.042;8.002;2023-01-05T02:59:16;100275.13;;;11.41;100.00
20424;BME280;10371;49.042;8.002;2023-01-05T03:00:25;100269.66;;;11.44;100.00
20424;BME280;10371;49.042;8.002;2023-01-05T03:01:35;100289.69;;;11.44;100.00
20424;BME280;10371;49.042;8.002;2023-01-05T03:02:39;100281.06;;;11.43;100.00
20424;BME280;10371;49.042;8.002;2023-01-05T03:03:46;100277.63;;;11.43;100.00
20424;BME280;10371;49.042;8.002;2023-01-05T03:04:52;100280.81;;;11.46;100.00
20424;BME280;10371;49.042;8.002;2023-01-05T03:06:05;100276.56;;;11.45;100.00
20424;BME280;10371;49.042;8.002;2023-01-05T03:07:13;100281.88;;;11.44;100.00
20424;BME280;10371;49.042;8.002;2023-01-05T03:08:15;100287.09;;;11.44;100.00
20424;BME280;10371;49.042;8.002;2023-01-05T03:09:26;100276.75;;;11.42;100.00
20424;BME280;10371;49.042;8.002;2023-01-05T03:10:27;100284.13;;;11.48;100.00
20424;BME280;10371;49.042;8.002;2023-01-05T03:11:54;100281.06;;;11.43;100.00
20424;BME280;10371;49.042;8.002;2023-01-05T03:13:15;100277.84;;;11.39;100.00
20424;BME280;10371;49.042;8.002;2023-01-05T03:14:54;100285.53;;;11.41;100.00
20424;BME280;10371;49.042;8.002;2023-01-05T03:15:56;100284.59;;;11.42;100.00
20424;BME280;10371;49.042;8.002;2023-01-05T03:17:03;100288.88;;;11.43;100.00
20424;BME280;10371;49.042;8.002;2023-01-05T03:18:11;100282.84;;;11.43;100.00
20424;BME280;10371;49.042;8.002;2023-01-05T03:19:14;100292.41;;;11.42;100.00
20424;BME280;10371;49.042;8.002;2023-01-05T03:20:40;100288.97;;;11.41;100.00
20424;BME280;10371;49.042;8.002;2023-01-05T03:21:43;100284.59;;;11.42;100.00
20424;BME280;10371;49.042;8.002;2023-01-05T03:23:05;100287.91;;;11.44;100.00
20424;BME280;10371;49.042;8.002;2023-01-05T03:24:25;100288.63;;;11.46;100.00
20424;BME280;10371;49.042;8.002;2023-01-05T03:25:45;100278.19;;;11.46;100.00
20424;BME280;10371;49.042;8.002;2023-01-05T03:27:06;100285.44;;;11.43;100.00
20424;BME280;10371;49.042;8.002;2023-01-05T03:28:32;100285.69;;;11.39;100.00
20424;BME280;10371;49.042;8.002;2023-01-05T03:29:55;100287.44;;;11.39;100.00
20424;BME280;10371;49.042;8.002;2023-01-05T03:32:34;100279.75;;;11.37;100.00
20424;BME280;10371;49.042;8.002;2023-01-05T03:34:06;100284.38;;;11.45;100.00
20424;BME280;10371;49.042;8.002;2023-01-05T03:35:27;100289.69;;;11.44;100.00
20424;BME280;10371;49.042;8.002;2023-01-05T03:36:48;100284.59;;;11.42;100.00
20424;BME280;10371;49.042;8.002;2023-01-05T03:38:04;100288.03;;;11.43;100.00
20424;BME280;10371;49.042;8.002;2023-01-05T03:39:06;100280.56;;;11.38;100.00
20424;BME280;10371;49.042;8.002;2023-01-05T03:40:15;100285.19;;;11.34;100.00
20424;BME280;10371;49.042;8.002;2023-01-05T03:41:20;100283.41;;;11.35;100.00
20424;BME280;10371;49.042;8.002;2023-01-05T03:42:22;100286.97;;;11.34;100.00
20424;BME280;10371;49.042;8.002;2023-01-05T03:43:22;100290.88;;;11.28;100.00
20424;BME280;10371;49.042;8.002;2023-01-05T03:44:24;100284.94;;;11.26;100.00
20424;BME280;10371;49.042;8.002;2023-01-05T03:45:32;100289.44;;;11.24;100.00
20424;BME280;10371;49.042;8.002;2023-01-05T03:46:34;100286.25;;;11.21;100.00
20424;BME280;10371;49.042;8.002;2023-01-05T03:47:34;100284.47;;;11.21;100.00
20424;BME280;10371;49.042;8.002;2023-01-05T03:48:34;100290.75;;;11.18;100.00
20424;BME280;10371;49.042;8.002;2023-01-05T03:49:35;100288.63;;;11.24;100.00
20424;BME280;10371;49.042;8.002;2023-01-05T03:50:36;100281.72;;;11.23;100.00
20424;BME280;10371;49.042;8.002;2023-01-05T03:51:37;100291.31;;;11.22;100.00
20424;BME280;10371;49.042;8.002;2023-01-05T03:52:37;100294.88;;;11.21;100.00
20424;BME280;10371;49.042;8.002;2023-01-05T03:53:37;100296.66;;;11.21;100.00
20424;BME280;10371;49.042;8.002;2023-01-05T03:54:37;100294.88;;;11.21;100.00
20424;BME280;10371;49.042;8.002;2023-01-05T03:55:38;100300.09;;;11.21;100.00
20424;BME280;10371;49.042;8.002;2023-01-05T03:56:38;100301.16;;;11.18;100.00
20424;BME280;10371;49.042;8.002;2023-01-05T03:57:39;100295.22;;;11.16;100.00
20424;BME280;10371;49.042;8.002;2023-01-05T03:58:39;100287.31;;;11.18;100.00
20424;BME280;10371;49.042;8.002;2023-01-05T03:59:39;100282.69;;;11.22;100.00
20424;BME280;10371;49.042;8.002;2023-01-05T04:00:40;100290.63;;;11.20;100.00
20424;BME280;10371;49.042;8.002;2023-01-05T04:01:40;100284.69;;;11.18;100.00
20424;BME280;10371;49.042;8.002;2023-01-05T04:02:40;100288.03;;;11.20;100.00
20424;BME280;10371;49.042;8.002;2023-01-05T04:03:40;100283.75;;;11.19;100.00
20424;BME280;10371;49.042;8.002;2023-01-05T04:04:41;100285.19;;;11.23;100.00
20424;BME280;10371;49.042;8.002;2023-01-05T04:05:41;100280.22;;;11.20;100.00
20424;BME280;10371;49.042;8.002;2023-01-05T04:06:41;100277.69;;;11.18;100.00
20424;BME280;10371;49.042;8.002;2023-01-05T04:07:41;100282.56;;;11.23;100.00
20424;BME280;10371;49.042;8.002;2023-01-05T04:08:42;100270.72;;;11.19;100.00
20424;BME280;10371;49.042;8.002;2023-01-05T04:09:42;100269.53;;;11.23;100.00
20424;BME280;10371;49.042;8.002;2023-01-05T04:10:42;100273.91;;;11.23;100.00
20424;BME280;10371;49.042;8.002;2023-01-05T04:11:43;100279.00;;;11.24;100.00
20424;BME280;10371;49.042;8.002;2023-01-05T04:12:43;100279.84;;;11.25;100.00
20424;BME280;10371;49.042;8.002;2023-01-05T04:13:45;100287.66;;;11.25;100.00
20424;BME280;10371;49.042;8.002;2023-01-05T04:14:46;100282.69;;;11.22;100.00
20424;BME280;10371;49.042;8.002;2023-01-05T04:15:46;100284.34;;;11.23;100.00
20424;BME280;10371;49.042;8.002;2023-01-05T04:16:46;100280.78;;;11.24;100.00
20424;BME280;10371;49.042;8.002;2023-01-05T04:17:46;100283.88;;;11.29;100.00
20424;BME280;10371;49.042;8.002;2023-01-05T04:18:47;100288.28;;;11.28;100.00
20424;BME280;10371;49.042;8.002;2023-01-05T04:19:47;100284.13;;;11.26;100.00
20424;BME280;10371;49.042;8.002;2023-01-05T04:20:47;100281.97;;;11.31;100.00
20424;BME280;10371;49.042;8.002;2023-01-05T04:21:48;100279.38;;;11.31;100.00
20424;BME280;10371;49.042;8.002;2023-01-05T04:22:48;100281.97;;;11.31;100.00
20424;BME280;10371;49.042;8.002;2023-01-05T04:23:48;100285.31;;;11.33;100.00
20424;BME280;10371;49.042;8.002;2023-01-05T04:24:48;100290.75;;;11.30;100.00
20424;BME280;10371;49.042;8.002;2023-01-05T04:25:49;100283.06;;;11.28;100.00
20424;BME280;10371;49.042;8.002;2023-01-05T04:26:49;100287.19;;;11.31;100.00
20424;BME280;10371;49.042;8.002;2023-01-05T04:27:49;100291.56;;;11.30;100.00
20424;BME280;10371;49.042;8.002;2023-01-05T04:28:49;100288.88;;;11.32;100.00
20424;BME280;10371;49.042;8.002;2023-01-05T04:29:50;100292.28;;;11.32;100.00
20424;BME280;10371;49.042;8.002;2023-01-05T04:30:52;100300.69;;;11.36;100.00
20424;BME280;10371;49.042;8.002;2023-01-05T04:31:52;100291.09;;;11.36;100.00
20424;BME280;10371;49.042;8.002;2023-01-05T04:32:53;100302.16;;;11.40;100.00
20424;BME280;10371;49.042;8.002;2023-01-05T04:33:53;100296.22;;;11.38;100.00
20424;BME280;10371;49.042;8.002;2023-01-05T04:34:53;100291.00;;;11.38;100.00
20424;BME280;10371;49.042;8.002;2023-01-05T04:35:53;100297.16;;;11.37;100.00
20424;BME280;10371;49.042;8.002;2023-01-05T04:36:54;100307.34;;;11.40;100.00
20424;BME280;10371;49.042;8.002;2023-01-05T04:37:54;100303.78;;;11.41;100.00
20424;BME280;10371;49.042;8.002;2023-01-05T04:38:54;100310.78;;;11.40;100.00
20424;BME280;10371;49.042;8.002;2023-01-05T04:39:55;100312.19;;;11.45;100.00
20424;BME280;10371;49.042;8.002;2023-01-05T04:40:55;100319.09;;;11.46;100.00
20424;BME280;10371;49.042;8.002;2023-01-05T04:41:55;100316.50;;;11.46;100.00
20424;BME280;10371;49.042;8.002;2023-01-05T04:42:55;100317.31;;;11.46;100.00
20424;BME280;10371;49.042;8.002;2023-01-05T04:43:56;100332.47;;;11.52;100.00
20424;BME280;10371;49.042;8.002;2023-01-05T04:44:57;100327.75;;;11.57;100.00
20424;BME280;10371;49.042;8.002;2023-01-05T04:45:57;100327.03;;;11.55;100.00
20424;BME280;10371;49.042;8.002;2023-01-05T04:46:57;100329.53;;;11.57;100.00
20424;BME280;10371;49.042;8.002;2023-01-05T04:47:58;100327.66;;;11.59;100.00
20424;BME280;10371;49.042;8.002;2023-01-05T04:48:58;100328.34;;;11.61;100.00
20424;BME280;10371;49.042;8.002;2023-01-05T04:49:58;100334.50;;;11.60;100.00
20424;BME280;10371;49.042;8.002;2023-01-05T04:50:58;100332.00;;;11.58;100.00
20424;BME280;10371;49.042;8.002;2023-01-05T04:51:59;100339.00;;;11.58;100.00
20424;BME280;10371;49.042;8.002;2023-01-05T04:52:59;100354.56;;;11.59;100.00
20424;BME280;10371;49.042;8.002;2023-01-05T04:53:59;100350.03;;;11.61;100.00
20424;BME280;10371;49.042;8.002;2023-01-05T04:55:00;100352.88;;;11.58;100.00
20424;BME280;10371;49.042;8.002;2023-01-05T04:56:00;100352.75;;;11.60;100.00
20424;BME280;10371;49.042;8.002;2023-01-05T04:57:00;100352.63;;;11.61;100.00
20424;BME280;10371;49.042;8.002;2023-01-05T04:58:03;100357.84;;;11.61;100.00
20424;BME280;10371;49.042;8.002;2023-01-05T04:59:03;100356.91;;;11.62;100.00
20424;BME280;10371;49.042;8.002;2023-01-05T05:00:04;100356.09;;;11.62;100.00
20424;BME280;10371;49.042;8.002;2023-01-05T05:01:05;100361.91;;;11.66;100.00
20424;BME280;10371;49.042;8.002;2023-01-05T05:02:05;100354.06;;;11.66;100.00
20424;BME280;10371;49.042;8.002;2023-01-05T05:03:05;100360.25;;;11.65;100.00
20424;BME280;10371;49.042;8.002;2023-01-05T05:04:06;100356.78;;;11.64;100.00
20424;BME280;10371;49.042;8.002;2023-01-05T05:05:06;100348.50;;;11.59;100.00
20424;BME280;10371;49.042;8.002;2023-01-05T05:06:07;100353.72;;;11.59;100.00
20424;BME280;10371;49.042;8.002;2023-01-05T05:07:07;100353.94;;;11.56;100.00
20424;BME280;10371;49.042;8.002;2023-01-05T05:08:07;100359.63;;;11.61;100.00
20424;BME280;10371;49.042;8.002;2023-01-05T05:09:08;100361.41;;;11.60;100.00
20424;BME280;10371;49.042;8.002;2023-01-05T05:10:08;100365.56;;;11.63;100.00
20424;BME280;10371;49.042;8.002;2023-01-05T05:11:09;100352.63;;;11.61;100.00
20424;BME280;10371;49.042;8.002;2023-01-05T05:12:09;100359.78;;;11.59;100.00
20424;BME280;10371;49.042;8.002;2023-01-05T05:13:09;100364.03;;;11.60;100.00
20424;BME280;10371;49.042;8.002;2023-01-05T05:14:10;100358.22;;;11.57;100.00
20424;BME280;10371;49.042;8.002;2023-01-05T05:15:10;100366.03;;;11.57;100.00
20424;BME280;10371;49.042;8.002;2023-01-05T05:16:10;100360.81;;;11.57;100.00
20424;BME280;10371;49.042;8.002;2023-01-05T05:17:11;100366.88;;;11.57;100.00
20424;BME280;10371;49.042;8.002;2023-01-05T05:18:11;100362.59;;;11.56;100.00
20424;BME280;10371;49.042;8.002;2023-01-05T05:19:12;100366.97;;;11.56;100.00
20424;BME280;10371;49.042;8.002;2023-01-05T05:20:12;100366.88;;;11.57;100.00
20424;BME280;10371;49.042;8.002;2023-01-05T05:21:12;100360.00;;;11.56;100.00
20424;BME280;10371;49.042;8.002;2023-01-05T05:22:12;100362.84;;;11.53;100.00
20424;BME280;10371;49.042;8.002;2023-01-05T05:23:13;100366.03;;;11.57;100.00
20424;BME280;10371;49.042;8.002;2023-01-05T05:24:13;100364.16;;;11.59;100.00
20424;BME280;10371;49.042;8.002;2023-01-05T05:25:13;100371.84;;;11.60;100.00
20424;BME280;10371;49.042;8.002;2023-01-05T05:26:14;100382.28;;;11.60;100.00
20424;BME280;10371;49.042;8.002;2023-01-05T05:27:14;100376.81;;;11.63;100.00
20424;BME280;10371;49.042;8.002;2023-01-05T05:28:14;100378.50;;;11.65;100.00
20424;BME280;10371;49.042;8.002;2023-01-05T05:29:14;100378.50;;;11.65;100.00
20424;BME280;10371;49.042;8.002;2023-01-05T05:30:15;100368.28;;;11.61;100.00
20424;BME280;10371;49.042;8.002;2023-01-05T05:31:15;100379.44;;;11.63;100.00
20424;BME280;10371;49.042;8.002;2023-01-05T05:32:15;100385.47;;;11.64;100.00
20424;BME280;10371;49.042;8.002;2023-01-05T05:33:16;100384.66;;;11.63;100.00
20424;BME280;10371;49.042;8.002;2023-01-05T05:34:16;100381.22;;;11.63;100.00
20424;BME280;10371;49.042;8.002;2023-01-05T05:35:17;100383.00;;;11.62;100.00
20424;BME280;10371;49.042;8.002;2023-01-05T05:36:17;100388.31;;;11.61;100.00
20424;BME280;10371;49.042;8.002;2023-01-05T05:37:17;100387.72;;;11.57;100.00
20424;BME280;10371;49.042;8.002;2023-01-05T05:38:18;100396.97;;;11.61;100.00
20424;BME280;10371;49.042;8.002;2023-01-05T05:39:18;100406.72;;;11.59;100.00
20424;BME280;10371;49.042;8.002;2023-01-05T05:40:19;100397.69;;;11.63;100.00
20424;BME280;10371;49.042;8.002;2023-01-05T05:41:19;100404.59;;;11.65;100.00
20424;BME280;10371;49.042;8.002;2023-01-05T05:42:20;100404.59;;;11.65;100.00
20424;BME280;10371;49.042;8.002;2023-01-05T05:43:20;100398.06;;;11.59;100.00
20424;BME280;10371;49.042;8.002;2023-01-05T05:44:20;100411.44;;;11.66;100.00
20424;BME280;10371;49.042;8.002;2023-01-05T05:45:21;100401.25;;;11.62;100.00
20424;BME280;10371;49.042;8.002;2023-01-05T05:46:21;100409.81;;;11.65;100.00
20424;BME280;10371;49.042;8.002;2023-01-05T05:47:21;100405.75;;;11.60;100.00
20424;BME280;10371;49.042;8.002;2023-01-05T05:48:21;100409.09;;;11.62;100.00
20424;BME280;10371;49.042;8.002;2023-01-05T05:49:22;100415.13;;;11.63;100.00
20424;BME280;10371;49.042;8.002;2023-01-05T05:50:22;100401.25;;;11.62;100.00